sensor_id;sensor_type;location;lat;lon;timestamp;temperature;humidity
54680;DHT22;40578;53.178;5.846;2023-08-06T00:00:23;14.00;99.90
54680;DHT22;40578;53.178;5.846;2023-08-06T00:02:49;14.00;99.90
54680;DHT22;40578;53.178;5.846;2023-08-06T00:05:15;14.10;99.90
54680;DHT22;40578;53.178;5.846;2023-08-06T00:07:49;13.90;99.90
54680;DHT22;40578;53.178;5.846;2023-08-06T00:10:15;14.00;99.90
54680;DHT22;40578;53.178;5.846;2023-08-06T00:12:41;14.00;99.90
54680;DHT22;40578;53.178;5.846;2023-08-06T00:15:07;14.00;99.90
54680;DHT22;40578;53.178;5.846;2023-08-06T00:17:34;14.00;99.90
54680;DHT22;40578;53.178;5.846;2023-08-06T00:19:59;13.90;99.90
54680;DHT22;40578;53.178;5.846;2023-08-06T00:22:36;14.00;99.90
54680;DHT22;40578;53.178;5.846;2023-08-06T00:25:02;14.00;99.90
54680;DHT22;40578;53.178;5.846;2023-08-06T00:27:28;14.00;99.90
54680;DHT22;40578;53.178;5.846;2023-08-06T00:29:54;13.90;99.90
54680;DHT22;40578;53.178;5.846;2023-08-06T00:32:20;14.10;99.90
54680;DHT22;40578;53.178;5.846;2023-08-06T00:34:46;14.00;99.90
54680;DHT22;40578;53.178;5.846;2023-08-06T00:37:11;14.00;99.90
54680;DHT22;40578;53.178;5.846;2023-08-06T00:39:37;14.10;99.90
54680;DHT22;40578;53.178;5.846;2023-08-06T00:42:03;14.00;99.90
54680;DHT22;40578;53.178;5.846;2023-08-06T00:44:28;14.00;99.90
54680;DHT22;40578;53.178;5.846;2023-08-06T00:46:55;14.00;99.90
54680;DHT22;40578;53.178;5.846;2023-08-06T00:49:21;14.00;99.90
54680;DHT22;40578;53.178;5.846;2023-08-06T00:51:47;14.00;99.90
54680;DHT22;40578;53.178;5.846;2023-08-06T00:54:13;14.00;99.90
54680;DHT22;40578;53.178;5.846;2023-08-06T00:56:39;14.00;99.90
54680;DHT22;40578;53.178;5.846;2023-08-06T00:59:07;14.00;99.90
54680;DHT22;40578;53.178;5.846;2023-08-06T01:01:35;14.00;99.90
54680;DHT22;40578;53.178;5.846;2023-08-06T01:04:01;14.00;99.90
54680;DHT22;40578;53.178;5.846;2023-08-06T01:07:06;14.00;99.90
54680;DHT22;40578;53.178;5.846;2023-08-06T01:12:37;14.10;99.90
54680;DHT22;40578;53.178;5.846;2023-08-06T01:15:17;14.10;99.90
54680;DHT22;40578;53.178;5.846;2023-08-06T01:17:45;14.10;99.90
54680;DHT22;40578;53.178;5.846;2023-08-06T01:20:11;14.10;99.90
54680;DHT22;40578;53.178;5.846;2023-08-06T01:22:36;14.20;99.90
54680;DHT22;40578;53.178;5.846;2023-08-06T01:25:02;14.10;99.90
54680;DHT22;40578;53.178;5.846;2023-08-06T01:30:17;14.60;99.90
54680;DHT22;40578;53.178;5.846;2023-08-06T01:32:49;14.20;99.90
54680;DHT22;40578;53.178;5.846;2023-08-06T01:35:17;14.20;99.90
54680;DHT22;40578;53.178;5.846;2023-08-06T01:37:45;14.20;99.90
54680;DHT22;40578;53.178;5.846;2023-08-06T01:40:12;14.50;99.90
54680;DHT22;40578;53.178;5.846;2023-08-06T01:42:38;14.10;99.90
54680;DHT22;40578;53.178;5.846;2023-08-06T01:45:05;14.10;99.90
54680;DHT22;40578;53.178;5.846;2023-08-06T01:47:30;14.20;99.90
54680;DHT22;40578;53.178;5.846;2023-08-06T01:49:56;14.10;99.90
54680;DHT22;40578;53.178;5.846;2023-08-06T01:52:22;14.10;99.90
54680;DHT22;40578;53.178;5.846;2023-08-06T01:54:47;14.10;99.90
54680;DHT22;40578;53.178;5.846;2023-08-06T01:57:13;14.00;99.90
54680;DHT22;40578;53.178;5.846;2023-08-06T01:59:38;14.00;99.90
54680;DHT22;40578;53.178;5.846;2023-08-06T02:02:04;14.10;99.90
54680;DHT22;40578;53.178;5.846;2023-08-06T02:04:30;14.00;99.90
54680;DHT22;40578;53.178;5.846;2023-08-06T02:06:55;14.00;99.90
54680;DHT22;40578;53.178;5.846;2023-08-06T02:09:21;14.00;99.90
54680;DHT22;40578;53.178;5.846;2023-08-06T02:11:46;14.20;99.90
54680;DHT22;40578;53.178;5.846;2023-08-06T02:14:12;14.00;99.90
54680;DHT22;40578;53.178;5.846;2023-08-06T02:16:38;14.10;99.90
54680;DHT22;40578;53.178;5.846;2023-08-06T02:19:03;14.10;99.90
54680;DHT22;40578;53.178;5.846;2023-08-06T02:21:29;14.10;99.90
54680;DHT22;40578;53.178;5.846;2023-08-06T02:23:54;14.20;99.90
54680;DHT22;40578;53.178;5.846;2023-08-06T02:26:20;14.10;99.90
54680;DHT22;40578;53.178;5.846;2023-08-06T02:28:46;14.00;99.90
54680;DHT22;40578;53.178;5.846;2023-08-06T02:31:11;14.10;99.90
54680;DHT22;40578;53.178;5.846;2023-08-06T02:33:37;14.60;99.90
54680;DHT22;40578;53.178;5.846;2023-08-06T02:36:03;14.00;99.90
54680;DHT22;40578;53.178;5.846;2023-08-06T02:38:29;13.90;99.90
54680;DHT22;40578;53.178;5.846;2023-08-06T02:40:55;13.90;99.90
54680;DHT22;40578;53.178;5.846;2023-08-06T02:43:21;14.30;99.90
54680;DHT22;40578;53.178;5.846;2023-08-06T02:45:47;14.00;99.90
54680;DHT22;40578;53.178;5.846;2023-08-06T02:48:12;14.00;99.90
54680;DHT22;40578;53.178;5.846;2023-08-06T02:50:41;13.90;99.90
54680;DHT22;40578;53.178;5.846;2023-08-06T02:53:08;13.90;99.90
54680;DHT22;40578;53.178;5.846;2023-08-06T02:55:34;14.20;99.90
54680;DHT22;40578;53.178;5.846;2023-08-06T02:58:00;14.00;99.90
54680;DHT22;40578;53.178;5.846;2023-08-06T03:00:27;14.00;99.90
54680;DHT22;40578;53.178;5.846;2023-08-06T03:02:53;14.00;99.90
54680;DHT22;40578;53.178;5.846;2023-08-06T03:05:19;14.00;99.90
54680;DHT22;40578;53.178;5.846;2023-08-06T03:07:44;13.90;99.90
54680;DHT22;40578;53.178;5.846;2023-08-06T03:10:10;13.90;99.90
54680;DHT22;40578;53.178;5.846;2023-08-06T03:12:36;13.90;99.90
54680;DHT22;40578;53.178;5.846;2023-08-06T03:15:02;13.90;99.90
54680;DHT22;40578;53.178;5.846;2023-08-06T03:17:27;13.90;99.90
54680;DHT22;40578;53.178;5.846;2023-08-06T03:19:53;13.90;99.90
54680;DHT22;40578;53.178;5.846;2023-08-06T03:22:18;13.90;99.90
54680;DHT22;40578;53.178;5.846;2023-08-06T03:24:44;13.90;99.90
54680;DHT22;40578;53.178;5.846;2023-08-06T03:27:09;13.90;99.90
54680;DHT22;40578;53.178;5.846;2023-08-06T03:29:35;14.00;99.90
54680;DHT22;40578;53.178;5.846;2023-08-06T03:32:01;14.30;99.90
54680;DHT22;40578;53.178;5.846;2023-08-06T03:34:27;14.00;99.90
54680;DHT22;40578;53.178;5.846;2023-08-06T03:36:53;13.90;99.90
54680;DHT22;40578;53.178;5.846;2023-08-06T03:39:18;14.00;99.90
54680;DHT22;40578;53.178;5.846;2023-08-06T03:41:44;13.90;99.90
54680;DHT22;40578;53.178;5.846;2023-08-06T03:44:10;13.90;99.90
54680;DHT22;40578;53.178;5.846;2023-08-06T03:46:35;13.90;99.90
54680;DHT22;40578;53.178;5.846;2023-08-06T03:49:01;13.90;99.90
54680;DHT22;40578;53.178;5.846;2023-08-06T03:51:26;13.90;99.90
54680;DHT22;40578;53.178;5.846;2023-08-06T03:53:52;14.00;99.90
54680;DHT22;40578;53.178;5.846;2023-08-06T03:56:18;13.90;99.90
54680;DHT22;40578;53.178;5.846;2023-08-06T03:58:43;13.90;99.90
54680;DHT22;40578;53.178;5.846;2023-08-06T04:01:09;13.90;99.90
54680;DHT22;40578;53.178;5.846;2023-08-06T04:03:34;13.80;99.90
54680;DHT22;40578;53.178;5.846;2023-08-06T04:06:02;13.90;99.90
54680;DHT22;40578;53.178;5.846;2023-08-06T04:08:28;13.80;99.90
54680;DHT22;40578;53.178;5.846;2023-08-06T04:10:54;13.80;99.90
54680;DHT22;40578;53.178;5.846;2023-08-06T04:13:20;13.90;99.90
54680;DHT22;40578;53.178;5.846;2023-08-06T04:15:46;13.80;99.90
54680;DHT22;40578;53.178;5.846;2023-08-06T04:18:11;13.80;99.90
54680;DHT22;40578;53.178;5.846;2023-08-06T04:20:47;13.70;99.90
54680;DHT22;40578;53.178;5.846;2023-08-06T04:23:14;13.70;99.90
54680;DHT22;40578;53.178;5.846;2023-08-06T04:25:40;13.70;99.90
54680;DHT22;40578;53.178;5.846;2023-08-06T04:28:06;13.60;99.90
54680;DHT22;40578;53.178;5.846;2023-08-06T04:30:32;13.70;99.90
54680;DHT22;40578;53.178;5.846;2023-08-06T04:32:58;13.80;99.90
54680;DHT22;40578;53.178;5.846;2023-08-06T04:35:23;13.70;99.90
54680;DHT22;40578;53.178;5.846;2023-08-06T04:37:49;13.70;99.90
54680;DHT22;40578;53.178;5.846;2023-08-06T04:40:14;13.90;99.90
54680;DHT22;40578;53.178;5.846;2023-08-06T04:42:40;13.80;99.90
54680;DHT22;40578;53.178;5.846;2023-08-06T04:45:06;13.80;99.90
54680;DHT22;40578;53.178;5.846;2023-08-06T04:47:32;13.80;99.90
54680;DHT22;40578;53.178;5.846;2023-08-06T04:49:58;13.80;99.90
54680;DHT22;40578;53.178;5.846;2023-08-06T04:52:23;13.90;99.90
54680;DHT22;40578;53.178;5.846;2023-08-06T04:54:53;13.80;99.90
54680;DHT22;40578;53.178;5.846;2023-08-06T04:57:18;13.80;99.90
54680;DHT22;40578;53.178;5.846;2023-08-06T04:59:44;13.80;99.90
54680;DHT22;40578;53.178;5.846;2023-08-06T05:02:09;13.80;99.90
54680;DHT22;40578;53.178;5.846;2023-08-06T05:04:35;13.80;99.90
54680;DHT22;40578;53.178;5.846;2023-08-06T05:07:01;13.90;99.90
54680;DHT22;40578;53.178;5.846;2023-08-06T05:09:26;13.90;99.90
54680;DHT22;40578;53.178;5.846;2023-08-06T05:11:52;13.90;99.90
54680;DHT22;40578;53.178;5.846;2023-08-06T05:14:17;13.90;99.90
54680;DHT22;40578;53.178;5.846;2023-08-06T05:16:43;14.50;99.90
54680;DHT22;40578;53.178;5.846;2023-08-06T05:19:08;13.90;99.90
54680;DHT22;40578;53.178;5.846;2023-08-06T05:21:34;13.90;99.90
54680;DHT22;40578;53.178;5.846;2023-08-06T05:23:59;14.00;99.90
54680;DHT22;40578;53.178;5.846;2023-08-06T05:26:25;14.10;99.90
54680;DHT22;40578;53.178;5.846;2023-08-06T05:28:51;14.20;99.90
54680;DHT22;40578;53.178;5.846;2023-08-06T05:31:16;14.20;99.90
54680;DHT22;40578;53.178;5.846;2023-08-06T05:33:42;14.30;99.90
54680;DHT22;40578;53.178;5.846;2023-08-06T05:36:07;14.40;99.90
54680;DHT22;40578;53.178;5.846;2023-08-06T05:38:33;14.80;99.90
54680;DHT22;40578;53.178;5.846;2023-08-06T05:40:58;14.80;99.90
54680;DHT22;40578;53.178;5.846;2023-08-06T05:43:24;14.60;99.90
54680;DHT22;40578;53.178;5.846;2023-08-06T05:45:50;14.70;99.90
54680;DHT22;40578;53.178;5.846;2023-08-06T05:48:16;14.70;99.90
54680;DHT22;40578;53.178;5.846;2023-08-06T05:50:41;14.70;99.90
54680;DHT22;40578;53.178;5.846;2023-08-06T05:53:07;14.80;99.90
54680;DHT22;40578;53.178;5.846;2023-08-06T05:55:33;14.70;99.90
54680;DHT22;40578;53.178;5.846;2023-08-06T05:57:59;14.80;99.90
54680;DHT22;40578;53.178;5.846;2023-08-06T06:00:25;14.80;99.90
54680;DHT22;40578;53.178;5.846;2023-08-06T06:02:51;15.30;99.90
54680;DHT22;40578;53.178;5.846;2023-08-06T06:05:16;15.00;99.90
54680;DHT22;40578;53.178;5.846;2023-08-06T06:07:42;15.00;99.90
54680;DHT22;40578;53.178;5.846;2023-08-06T06:10:08;15.10;99.90
54680;DHT22;40578;53.178;5.846;2023-08-06T06:12:33;15.20;99.90
54680;DHT22;40578;53.178;5.846;2023-08-06T06:14:59;15.30;99.90
54680;DHT22;40578;53.178;5.846;2023-08-06T06:17:26;14.60;99.90
54680;DHT22;40578;53.178;5.846;2023-08-06T06:19:52;15.40;99.90
54680;DHT22;40578;53.178;5.846;2023-08-06T06:22:18;15.40;99.90
54680;DHT22;40578;53.178;5.846;2023-08-06T06:24:43;15.50;99.90
54680;DHT22;40578;53.178;5.846;2023-08-06T06:27:09;15.50;99.90
54680;DHT22;40578;53.178;5.846;2023-08-06T06:29:34;15.50;99.90
54680;DHT22;40578;53.178;5.846;2023-08-06T06:32:00;15.50;99.90
54680;DHT22;40578;53.178;5.846;2023-08-06T06:34:26;15.60;99.90
54680;DHT22;40578;53.178;5.846;2023-08-06T06:36:51;15.70;99.90
54680;DHT22;40578;53.178;5.846;2023-08-06T06:39:17;15.80;99.90
54680;DHT22;40578;53.178;5.846;2023-08-06T06:41:43;15.90;99.90
54680;DHT22;40578;53.178;5.846;2023-08-06T06:44:09;16.10;99.90
54680;DHT22;40578;53.178;5.846;2023-08-06T06:46:35;15.90;99.90
54680;DHT22;40578;53.178;5.846;2023-08-06T06:49:01;15.80;99.90
54680;DHT22;40578;53.178;5.846;2023-08-06T06:51:26;15.90;99.90
54680;DHT22;40578;53.178;5.846;2023-08-06T06:53:52;16.10;99.90
54680;DHT22;40578;53.178;5.846;2023-08-06T06:56:18;16.10;99.90
54680;DHT22;40578;53.178;5.846;2023-08-06T06:58:43;16.10;99.90
54680;DHT22;40578;53.178;5.846;2023-08-06T07:01:10;15.90;99.90
54680;DHT22;40578;53.178;5.846;2023-08-06T07:03:37;16.00;99.90
54680;DHT22;40578;53.178;5.846;2023-08-06T07:06:03;16.00;99.90
54680;DHT22;40578;53.178;5.846;2023-08-06T07:08:29;16.00;99.90
54680;DHT22;40578;53.178;5.846;2023-08-06T07:11:05;16.00;99.90
54680;DHT22;40578;53.178;5.846;2023-08-06T07:13:32;16.00;99.90
54680;DHT22;40578;53.178;5.846;2023-08-06T07:15:58;16.00;99.90
54680;DHT22;40578;53.178;5.846;2023-08-06T07:18:24;15.90;99.90
54680;DHT22;40578;53.178;5.846;2023-08-06T07:20:54;15.90;99.90
54680;DHT22;40578;53.178;5.846;2023-08-06T07:23:22;16.00;99.90
54680;DHT22;40578;53.178;5.846;2023-08-06T07:25:48;16.00;99.90
54680;DHT22;40578;53.178;5.846;2023-08-06T07:28:14;16.10;99.90
54680;DHT22;40578;53.178;5.846;2023-08-06T07:30:43;16.20;99.90
54680;DHT22;40578;53.178;5.846;2023-08-06T07:33:10;16.40;99.90
54680;DHT22;40578;53.178;5.846;2023-08-06T07:35:36;16.40;99.90
54680;DHT22;40578;53.178;5.846;2023-08-06T07:38:02;16.50;99.90
54680;DHT22;40578;53.178;5.846;2023-08-06T07:40:28;16.50;99.90
54680;DHT22;40578;53.178;5.846;2023-08-06T07:42:54;16.50;99.90
54680;DHT22;40578;53.178;5.846;2023-08-06T07:45:19;16.70;99.90
54680;DHT22;40578;53.178;5.846;2023-08-06T07:47:45;16.80;99.90
54680;DHT22;40578;53.178;5.846;2023-08-06T07:50:11;16.80;99.90
54680;DHT22;40578;53.178;5.846;2023-08-06T07:52:36;17.10;99.90
54680;DHT22;40578;53.178;5.846;2023-08-06T07:55:02;17.10;99.90
54680;DHT22;40578;53.178;5.846;2023-08-06T07:57:33;17.20;99.90
54680;DHT22;40578;53.178;5.846;2023-08-06T08:00:00;17.30;99.90
54680;DHT22;40578;53.178;5.846;2023-08-06T08:02:25;17.30;99.90
54680;DHT22;40578;53.178;5.846;2023-08-06T08:04:51;17.30;99.90
54680;DHT22;40578;53.178;5.846;2023-08-06T08:07:17;17.40;99.90
54680;DHT22;40578;53.178;5.846;2023-08-06T08:09:43;17.60;99.90
54680;DHT22;40578;53.178;5.846;2023-08-06T08:12:09;17.40;99.90
54680;DHT22;40578;53.178;5.846;2023-08-06T08:14:34;17.50;99.90
54680;DHT22;40578;53.178;5.846;2023-08-06T08:17:05;17.70;99.90
54680;DHT22;40578;53.178;5.846;2023-08-06T08:19:32;17.70;99.90
54680;DHT22;40578;53.178;5.846;2023-08-06T08:21:57;17.60;99.90
54680;DHT22;40578;53.178;5.846;2023-08-06T08:24:23;17.80;99.90
54680;DHT22;40578;53.178;5.846;2023-08-06T08:26:53;17.80;99.90
54680;DHT22;40578;53.178;5.846;2023-08-06T08:29:22;17.80;99.90
54680;DHT22;40578;53.178;5.846;2023-08-06T08:31:48;18.00;99.90
54680;DHT22;40578;53.178;5.846;2023-08-06T08:34:18;18.00;99.90
54680;DHT22;40578;53.178;5.846;2023-08-06T08:36:44;18.10;99.90
54680;DHT22;40578;53.178;5.846;2023-08-06T08:39:15;17.80;99.90
54680;DHT22;40578;53.178;5.846;2023-08-06T08:41:42;18.10;99.90
54680;DHT22;40578;53.178;5.846;2023-08-06T08:44:10;18.20;99.90
54680;DHT22;40578;53.178;5.846;2023-08-06T08:46:40;18.20;99.90
54680;DHT22;40578;53.178;5.846;2023-08-06T08:49:06;18.30;99.90
54680;DHT22;40578;53.178;5.846;2023-08-06T08:51:33;18.40;99.90
54680;DHT22;40578;53.178;5.846;2023-08-06T08:54:03;18.40;99.90
54680;DHT22;40578;53.178;5.846;2023-08-06T08:56:29;18.50;99.90
54680;DHT22;40578;53.178;5.846;2023-08-06T08:58:55;18.50;99.90
54680;DHT22;40578;53.178;5.846;2023-08-06T09:01:22;18.60;99.90
54680;DHT22;40578;53.178;5.846;2023-08-06T09:03:48;18.50;99.90
54680;DHT22;40578;53.178;5.846;2023-08-06T09:06:14;18.50;99.90
54680;DHT22;40578;53.178;5.846;2023-08-06T09:09:06;18.60;99.90
54680;DHT22;40578;53.178;5.846;2023-08-06T09:11:39;18.70;99.90
54680;DHT22;40578;53.178;5.846;2023-08-06T09:14:07;18.70;99.90
54680;DHT22;40578;53.178;5.846;2023-08-06T09:16:35;18.80;99.90
54680;DHT22;40578;53.178;5.846;2023-08-06T09:19:10;18.60;99.90
54680;DHT22;40578;53.178;5.846;2023-08-06T09:21:41;18.80;99.90
54680;DHT22;40578;53.178;5.846;2023-08-06T09:24:11;18.70;99.90
54680;DHT22;40578;53.178;5.846;2023-08-06T09:26:40;18.80;99.90
54680;DHT22;40578;53.178;5.846;2023-08-06T09:29:07;18.90;99.90
54680;DHT22;40578;53.178;5.846;2023-08-06T09:31:53;18.80;99.90
54680;DHT22;40578;53.178;5.846;2023-08-06T09:34:21;19.00;99.90
54680;DHT22;40578;53.178;5.846;2023-08-06T09:36:49;19.10;99.90
54680;DHT22;40578;53.178;5.846;2023-08-06T09:39:31;19.10;99.90
54680;DHT22;40578;53.178;5.846;2023-08-06T09:41:58;19.00;99.90
54680;DHT22;40578;53.178;5.846;2023-08-06T09:44:25;19.10;99.90
54680;DHT22;40578;53.178;5.846;2023-08-06T09:46:52;18.90;99.90
54680;DHT22;40578;53.178;5.846;2023-08-06T09:49:20;19.10;99.90
54680;DHT22;40578;53.178;5.846;2023-08-06T09:51:47;19.10;99.90
54680;DHT22;40578;53.178;5.846;2023-08-06T09:54:17;19.10;99.90
54680;DHT22;40578;53.178;5.846;2023-08-06T09:56:43;19.10;99.90
54680;DHT22;40578;53.178;5.846;2023-08-06T09:59:09;19.10;99.90
54680;DHT22;40578;53.178;5.846;2023-08-06T10:01:37;19.00;99.90
54680;DHT22;40578;53.178;5.846;2023-08-06T10:04:04;19.00;99.90
54680;DHT22;40578;53.178;5.846;2023-08-06T10:06:34;19.20;99.90
54680;DHT22;40578;53.178;5.846;2023-08-06T10:09:06;19.30;99.90
54680;DHT22;40578;53.178;5.846;2023-08-06T10:11:33;19.10;99.90
54680;DHT22;40578;53.178;5.846;2023-08-06T10:14:47;19.10;99.90
54680;DHT22;40578;53.178;5.846;2023-08-06T10:16:48;19.10;99.90
54680;DHT22;40578;53.178;5.846;2023-08-06T10:19:15;19.10;99.90
54680;DHT22;40578;53.178;5.846;2023-08-06T10:21:42;19.00;99.90
54680;DHT22;40578;53.178;5.846;2023-08-06T10:24:27;19.00;99.90
54680;DHT22;40578;53.178;5.846;2023-08-06T10:26:57;18.80;99.90
54680;DHT22;40578;53.178;5.846;2023-08-06T10:29:37;18.60;99.90
54680;DHT22;40578;53.178;5.846;2023-08-06T10:32:03;18.60;99.90
54680;DHT22;40578;53.178;5.846;2023-08-06T10:34:58;18.60;99.90
54680;DHT22;40578;53.178;5.846;2023-08-06T10:37:25;18.50;99.90
54680;DHT22;40578;53.178;5.846;2023-08-06T10:39:59;18.50;99.90
54680;DHT22;40578;53.178;5.846;2023-08-06T10:42:29;18.50;99.90
54680;DHT22;40578;53.178;5.846;2023-08-06T10:45:17;18.50;99.90
54680;DHT22;40578;53.178;5.846;2023-08-06T10:47:44;18.50;99.90
54680;DHT22;40578;53.178;5.846;2023-08-06T10:50:15;18.40;99.90
54680;DHT22;40578;53.178;5.846;2023-08-06T10:52:45;18.50;99.90
54680;DHT22;40578;53.178;5.846;2023-08-06T10:55:11;18.60;99.90
54680;DHT22;40578;53.178;5.846;2023-08-06T10:57:36;18.60;99.90
54680;DHT22;40578;53.178;5.846;2023-08-06T11:00:05;18.80;99.90
54680;DHT22;40578;53.178;5.846;2023-08-06T11:02:34;18.70;99.90
54680;DHT22;40578;53.178;5.846;2023-08-06T11:05:07;18.80;99.90
54680;DHT22;40578;53.178;5.846;2023-08-06T11:07:36;18.80;99.90
54680;DHT22;40578;53.178;5.846;2023-08-06T11:10:07;18.80;99.90
54680;DHT22;40578;53.178;5.846;2023-08-06T11:12:34;18.80;99.90
54680;DHT22;40578;53.178;5.846;2023-08-06T11:15:01;19.00;99.90
54680;DHT22;40578;53.178;5.846;2023-08-06T11:17:28;19.10;99.90
54680;DHT22;40578;53.178;5.846;2023-08-06T11:19:54;19.10;99.90
54680;DHT22;40578;53.178;5.846;2023-08-06T11:22:23;19.10;99.90
54680;DHT22;40578;53.178;5.846;2023-08-06T11:24:49;19.20;99.90
54680;DHT22;40578;53.178;5.846;2023-08-06T11:27:16;19.30;99.90
54680;DHT22;40578;53.178;5.846;2023-08-06T11:29:43;19.40;99.90
54680;DHT22;40578;53.178;5.846;2023-08-06T11:32:09;19.40;99.90
54680;DHT22;40578;53.178;5.846;2023-08-06T11:34:35;19.30;99.90
54680;DHT22;40578;53.178;5.846;2023-08-06T11:37:05;19.40;99.90
54680;DHT22;40578;53.178;5.846;2023-08-06T11:39:35;19.50;99.90
54680;DHT22;40578;53.178;5.846;2023-08-06T11:42:03;19.40;99.90
54680;DHT22;40578;53.178;5.846;2023-08-06T11:44:34;19.40;99.90
54680;DHT22;40578;53.178;5.846;2023-08-06T11:47:01;19.50;99.90
54680;DHT22;40578;53.178;5.846;2023-08-06T11:49:41;19.50;99.90
54680;DHT22;40578;53.178;5.846;2023-08-06T11:52:29;19.50;99.90
54680;DHT22;40578;53.178;5.846;2023-08-06T11:55:06;19.40;99.90
54680;DHT22;40578;53.178;5.846;2023-08-06T11:57:37;19.60;99.90
54680;DHT22;40578;53.178;5.846;2023-08-06T12:00:06;19.60;99.90
54680;DHT22;40578;53.178;5.846;2023-08-06T12:02:33;19.50;99.90
54680;DHT22;40578;53.178;5.846;2023-08-06T12:05:10;19.60;99.90
54680;DHT22;40578;53.178;5.846;2023-08-06T12:07:42;19.50;99.90
54680;DHT22;40578;53.178;5.846;2023-08-06T12:10:09;19.50;99.90
54680;DHT22;40578;53.178;5.846;2023-08-06T12:12:35;19.40;99.90
54680;DHT22;40578;53.178;5.846;2023-08-06T12:15:01;19.40;99.90
54680;DHT22;40578;53.178;5.846;2023-08-06T12:17:27;19.40;99.90
54680;DHT22;40578;53.178;5.846;2023-08-06T12:19:53;19.40;99.90
54680;DHT22;40578;53.178;5.846;2023-08-06T12:22:19;19.30;99.90
54680;DHT22;40578;53.178;5.846;2023-08-06T12:24:45;19.30;99.90
54680;DHT22;40578;53.178;5.846;2023-08-06T12:27:12;19.20;99.90
54680;DHT22;40578;53.178;5.846;2023-08-06T12:29:42;19.20;99.90
54680;DHT22;40578;53.178;5.846;2023-08-06T12:32:11;18.90;99.90
54680;DHT22;40578;53.178;5.846;2023-08-06T12:34:38;19.00;99.90
54680;DHT22;40578;53.178;5.846;2023-08-06T12:37:04;18.90;99.90
54680;DHT22;40578;53.178;5.846;2023-08-06T12:39:30;18.90;99.90
54680;DHT22;40578;53.178;5.846;2023-08-06T12:41:56;19.30;99.90
54680;DHT22;40578;53.178;5.846;2023-08-06T12:44:23;19.20;99.90
54680;DHT22;40578;53.178;5.846;2023-08-06T12:46:50;19.30;99.90
54680;DHT22;40578;53.178;5.846;2023-08-06T12:49:17;19.40;99.90
54680;DHT22;40578;53.178;5.846;2023-08-06T12:51:43;19.60;99.90
54680;DHT22;40578;53.178;5.846;2023-08-06T12:54:08;19.50;99.90
54680;DHT22;40578;53.178;5.846;2023-08-06T12:56:34;19.50;99.90
54680;DHT22;40578;53.178;5.846;2023-08-06T12:59:00;19.60;99.90
54680;DHT22;40578;53.178;5.846;2023-08-06T13:01:26;19.70;99.90
54680;DHT22;40578;53.178;5.846;2023-08-06T13:03:51;19.90;99.90
54680;DHT22;40578;53.178;5.846;2023-08-06T13:06:17;19.90;99.90
54680;DHT22;40578;53.178;5.846;2023-08-06T13:08:42;20.10;99.90
54680;DHT22;40578;53.178;5.846;2023-08-06T13:11:08;20.10;99.90
54680;DHT22;40578;53.178;5.846;2023-08-06T13:13:34;20.20;99.90
54680;DHT22;40578;53.178;5.846;2023-08-06T13:15:59;20.40;99.90
54680;DHT22;40578;53.178;5.846;2023-08-06T13:18:25;20.50;99.90
54680;DHT22;40578;53.178;5.846;2023-08-06T13:20:53;20.60;99.90
54680;DHT22;40578;53.178;5.846;2023-08-06T13:23:20;20.60;99.90
54680;DHT22;40578;53.178;5.846;2023-08-06T13:25:45;20.70;99.90
54680;DHT22;40578;53.178;5.846;2023-08-06T13:28:11;20.60;99.90
54680;DHT22;40578;53.178;5.846;2023-08-06T13:30:37;20.50;99.90
54680;DHT22;40578;53.178;5.846;2023-08-06T13:33:11;20.20;99.90
54680;DHT22;40578;53.178;5.846;2023-08-06T13:35:37;20.10;99.90
54680;DHT22;40578;53.178;5.846;2023-08-06T13:38:04;20.00;99.90
54680;DHT22;40578;53.178;5.846;2023-08-06T13:40:31;19.90;99.90
54680;DHT22;40578;53.178;5.846;2023-08-06T13:42:57;19.70;99.90
54680;DHT22;40578;53.178;5.846;2023-08-06T13:45:23;19.50;99.90
54680;DHT22;40578;53.178;5.846;2023-08-06T13:47:49;19.40;99.90
54680;DHT22;40578;53.178;5.846;2023-08-06T13:50:15;19.40;99.90
54680;DHT22;40578;53.178;5.846;2023-08-06T13:52:40;19.20;99.90
54680;DHT22;40578;53.178;5.846;2023-08-06T13:55:06;19.20;99.90
54680;DHT22;40578;53.178;5.846;2023-08-06T13:57:33;19.10;99.90
54680;DHT22;40578;53.178;5.846;2023-08-06T13:59:59;19.00;99.90
54680;DHT22;40578;53.178;5.846;2023-08-06T14:02:25;18.90;99.90
54680;DHT22;40578;53.178;5.846;2023-08-06T14:04:52;18.80;99.90
54680;DHT22;40578;53.178;5.846;2023-08-06T14:07:18;18.90;99.90
54680;DHT22;40578;53.178;5.846;2023-08-06T14:09:44;18.90;99.90
54680;DHT22;40578;53.178;5.846;2023-08-06T14:12:10;18.90;99.90
54680;DHT22;40578;53.178;5.846;2023-08-06T14:14:35;18.90;99.90
54680;DHT22;40578;53.178;5.846;2023-08-06T14:17:02;19.00;99.90
54680;DHT22;40578;53.178;5.846;2023-08-06T14:19:27;19.00;99.90
54680;DHT22;40578;53.178;5.846;2023-08-06T14:21:54;18.90;99.90
54680;DHT22;40578;53.178;5.846;2023-08-06T14:24:20;18.80;99.90
54680;DHT22;40578;53.178;5.846;2023-08-06T14:26:46;18.80;99.90
54680;DHT22;40578;53.178;5.846;2023-08-06T14:29:12;18.60;99.90
54680;DHT22;40578;53.178;5.846;2023-08-06T14:31:39;18.60;99.90
54680;DHT22;40578;53.178;5.846;2023-08-06T14:34:04;18.60;99.90
54680;DHT22;40578;53.178;5.846;2023-08-06T14:36:30;18.60;99.90
54680;DHT22;40578;53.178;5.846;2023-08-06T14:38:56;18.70;99.90
54680;DHT22;40578;53.178;5.846;2023-08-06T14:41:21;18.70;99.90
54680;DHT22;40578;53.178;5.846;2023-08-06T14:43:47;18.70;99.90
54680;DHT22;40578;53.178;5.846;2023-08-06T14:46:12;18.80;99.90
54680;DHT22;40578;53.178;5.846;2023-08-06T14:48:38;18.80;99.90
54680;DHT22;40578;53.178;5.846;2023-08-06T14:51:04;18.80;99.90
54680;DHT22;40578;53.178;5.846;2023-08-06T14:53:30;18.80;99.90
54680;DHT22;40578;53.178;5.846;2023-08-06T14:55:55;19.00;99.90
54680;DHT22;40578;53.178;5.846;2023-08-06T14:58:21;19.00;99.90
54680;DHT22;40578;53.178;5.846;2023-08-06T15:00:47;19.10;99.90
54680;DHT22;40578;53.178;5.846;2023-08-06T15:03:12;19.10;99.90
54680;DHT22;40578;53.178;5.846;2023-08-06T15:05:39;19.10;99.90
54680;DHT22;40578;53.178;5.846;2023-08-06T15:08:08;19.10;99.90
54680;DHT22;40578;53.178;5.846;2023-08-06T15:10:33;19.10;99.90
54680;DHT22;40578;53.178;5.846;2023-08-06T15:12:59;19.00;99.90
54680;DHT22;40578;53.178;5.846;2023-08-06T15:15:26;18.90;99.90
54680;DHT22;40578;53.178;5.846;2023-08-06T15:17:52;18.90;99.90
54680;DHT22;40578;53.178;5.846;2023-08-06T15:20:18;18.80;99.90
54680;DHT22;40578;53.178;5.846;2023-08-06T15:22:44;18.90;99.90
54680;DHT22;40578;53.178;5.846;2023-08-06T15:25:09;18.90;99.90
54680;DHT22;40578;53.178;5.846;2023-08-06T15:27:35;18.90;99.90
54680;DHT22;40578;53.178;5.846;2023-08-06T15:30:02;18.80;99.90
54680;DHT22;40578;53.178;5.846;2023-08-06T15:32:28;18.90;99.90
54680;DHT22;40578;53.178;5.846;2023-08-06T15:34:53;18.90;99.90